Terminal Aerodrome Forecast
Issued by NWS

Current Version | Previous Version | Text Only | Print | Product List | Glossary On
Versions: 1 2 3 4 5 6 7 8 9 10 11 12 13 14 15 16 17 18 19
000
FTUS42 KRAH 281120
TAFRWI
TAF
KRWI 281120Z 2812/2912 00000KT P6SM FEW250
      TEMPO 2813/2816 3/4SM BR OVC002
     FM281600 20009KT P6SM SCT250
     FM290800 21005KT 6SM BR BKN004=

USA.gov is the U.S. government's official web portal to all federal, state and local government web resources and services.